createdAt,value
2022-10-22T00:00:36.872Z,25.38
2022-10-22T00:03:04.132Z,22.02
2022-10-22T00:05:31.351Z,25.73
2022-10-22T00:07:58.537Z,22.75
2022-10-22T00:10:25.706Z,24.33
2022-10-22T00:12:52.884Z,21.67
2022-10-22T00:15:20.137Z,23.45
2022-10-22T00:17:49.513Z,19.02
2022-10-22T00:20:16.922Z,20.63
2022-10-22T00:22:44.122Z,22.25
2022-10-22T00:25:11.299Z,21.27
2022-10-22T00:27:38.709Z,24.50
2022-10-22T00:30:06.441Z,23.20
2022-10-22T00:32:33.600Z,23.58
2022-10-22T00:35:00.942Z,20.40
2022-10-22T00:37:28.113Z,23.02
2022-10-22T00:39:55.301Z,20.80
2022-10-22T00:42:24.949Z,23.73
2022-10-22T00:45:10.803Z,24.58
2022-10-22T00:47:54.577Z,25.05
2022-10-22T00:50:29.686Z,33.10
2022-10-22T00:52:57.842Z,32.55
2022-10-22T00:55:26.370Z,24.98
2022-10-22T00:57:55.071Z,31.23
2022-10-22T01:00:22.571Z,32.58
2022-10-22T01:02:50.812Z,27.45
2022-10-22T01:05:18.498Z,28.45
2022-10-22T01:07:49.134Z,29.35
2022-10-22T01:10:45.660Z,31.80
2022-10-22T01:13:31.905Z,28.00
2022-10-22T01:16:26.247Z,26.20
2022-10-22T01:19:25.999Z,33.30
2022-10-22T01:21:58.788Z,21.98
2022-10-22T01:24:34.783Z,24.35
2022-10-22T01:27:25.920Z,23.83
2022-10-22T01:30:06.492Z,30.35
2022-10-22T01:32:50.246Z,27.15
2022-10-22T01:35:23.831Z,26.58
2022-10-22T01:37:57.794Z,19.52
2022-10-22T01:40:25.678Z,22.17
2022-10-22T01:43:01.235Z,25.55
2022-10-22T01:45:37.806Z,25.42
2022-10-22T01:48:32.860Z,24.95
2022-10-22T01:51:51.264Z,24.20
2022-10-22T01:54:26.306Z,23.13
2022-10-22T01:57:14.927Z,27.00
2022-10-22T02:00:05.514Z,22.27
2022-10-22T02:05:32.918Z,22.73
2022-10-22T02:08:23.910Z,19.95
2022-10-22T02:10:51.728Z,20.67
2022-10-22T02:13:23.433Z,23.88
2022-10-22T02:15:52.385Z,22.52
2022-10-22T02:18:25.790Z,20.42
2022-10-22T02:20:54.421Z,20.90
2022-10-22T02:23:22.747Z,22.80
2022-10-22T02:25:54.154Z,21.63
2022-10-22T02:28:35.659Z,22.17
2022-10-22T02:31:10.186Z,25.17
2022-10-22T02:33:41.331Z,25.40
2022-10-22T02:36:09.100Z,24.45
2022-10-22T02:38:36.952Z,21.00
2022-10-22T02:41:04.603Z,25.13
2022-10-22T02:43:31.758Z,25.25
2022-10-22T02:45:58.927Z,25.45
2022-10-22T02:48:26.142Z,21.25
2022-10-22T02:50:53.291Z,23.65
2022-10-22T02:53:20.471Z,20.80
2022-10-22T02:55:47.616Z,23.30
2022-10-22T02:58:14.777Z,23.15
2022-10-22T03:00:41.943Z,24.17
2022-10-22T03:03:09.099Z,18.90
2022-10-22T03:05:36.301Z,22.63
2022-10-22T03:08:03.456Z,24.52
2022-10-22T03:10:30.621Z,22.63
2022-10-22T03:12:58.196Z,22.67
2022-10-22T03:15:25.430Z,25.35
2022-10-22T03:17:52.592Z,21.00
2022-10-22T03:20:19.785Z,20.55
2022-10-22T03:22:47.223Z,23.60
2022-10-22T03:25:19.218Z,23.90
2022-10-22T03:27:46.864Z,23.25
2022-10-22T03:30:14.061Z,23.42
2022-10-22T03:32:41.296Z,21.00
2022-10-22T03:35:08.705Z,24.42
2022-10-22T03:37:37.066Z,23.77
2022-10-22T03:40:06.733Z,23.60
2022-10-22T03:42:34.148Z,24.13
2022-10-22T03:45:01.312Z,24.00
2022-10-22T03:47:28.504Z,21.15
2022-10-22T03:49:55.685Z,23.80
2022-10-22T03:52:22.846Z,21.65
2022-10-22T03:54:50.057Z,25.48
2022-10-22T03:57:17.208Z,25.52
2022-10-22T03:59:45.621Z,26.35
2022-10-22T04:02:13.690Z,25.97
2022-10-22T04:04:40.862Z,26.80
2022-10-22T04:07:08.434Z,24.60
2022-10-22T04:09:36.315Z,25.15
2022-10-22T04:12:05.470Z,21.17
2022-10-22T04:14:32.887Z,24.17
2022-10-22T04:17:00.044Z,32.97
2022-10-22T04:19:27.229Z,24.77
2022-10-22T04:21:54.362Z,23.55
2022-10-22T04:24:22.070Z,23.75
2022-10-22T04:26:49.204Z,25.80
2022-10-22T04:29:16.576Z,26.25
2022-10-22T04:31:44.072Z,23.10
2022-10-22T04:34:11.238Z,25.35
2022-10-22T04:36:38.593Z,24.08
2022-10-22T04:39:06.194Z,23.52
2022-10-22T04:41:36.383Z,24.15
2022-10-22T04:44:04.104Z,25.20
2022-10-22T04:46:33.400Z,26.92
2022-10-22T04:49:00.623Z,24.77
2022-10-22T04:51:28.372Z,24.77
2022-10-22T04:53:55.717Z,23.33
2022-10-22T04:56:26.355Z,23.70
2022-10-22T04:58:56.127Z,26.98
2022-10-22T05:01:31.785Z,25.05
2022-10-22T05:04:00.483Z,22.10
2022-10-22T05:06:29.274Z,23.20
2022-10-22T05:09:01.961Z,28.60
2022-10-22T05:11:33.307Z,25.48
2022-10-22T05:14:02.314Z,23.42
2022-10-22T05:16:30.444Z,24.15
2022-10-22T05:18:59.199Z,21.45
2022-10-22T05:21:27.000Z,21.63
2022-10-22T05:23:55.393Z,25.30
2022-10-22T05:26:23.746Z,22.33
2022-10-22T05:28:51.604Z,22.52
2022-10-22T05:31:20.007Z,25.77
2022-10-22T05:33:47.588Z,21.97
2022-10-22T05:36:18.377Z,24.27
2022-10-22T05:38:46.019Z,22.20
2022-10-22T05:41:19.095Z,24.75
2022-10-22T05:43:46.969Z,23.30
2022-10-22T05:46:21.395Z,22.50
2022-10-22T05:49:00.967Z,23.42
2022-10-22T05:51:30.159Z,27.13
2022-10-22T05:53:59.130Z,22.95
2022-10-22T05:56:27.491Z,24.10
2022-10-22T05:58:55.002Z,23.30
2022-10-22T06:01:27.901Z,24.48
2022-10-22T06:03:57.645Z,22.88
2022-10-22T06:06:37.583Z,21.85
2022-10-22T06:09:27.942Z,21.98
2022-10-22T06:11:56.292Z,21.40
2022-10-22T06:14:24.420Z,24.38
2022-10-22T06:16:51.878Z,31.23
2022-10-22T06:19:20.737Z,27.52
2022-10-22T06:21:48.306Z,28.80
2022-10-22T06:24:16.002Z,29.50
2022-10-22T06:26:43.776Z,25.98
2022-10-22T06:29:11.021Z,29.52
2022-10-22T06:31:38.186Z,25.30
2022-10-22T06:34:06.754Z,27.45
2022-10-22T06:36:34.851Z,28.58
2022-10-22T06:39:02.202Z,24.23
2022-10-22T06:41:29.790Z,28.30
2022-10-22T06:43:57.880Z,23.67
2022-10-22T06:46:26.050Z,24.58
2022-10-22T06:48:58.453Z,26.70
2022-10-22T06:51:26.747Z,23.38
2022-10-22T06:53:55.435Z,27.13
2022-10-22T06:56:23.895Z,24.52
2022-10-22T06:58:52.189Z,23.33
2022-10-22T07:01:21.437Z,28.25
2022-10-22T07:06:17.253Z,25.03
2022-10-22T07:08:44.483Z,23.23
2022-10-22T07:11:14.387Z,21.67
2022-10-22T07:13:41.849Z,24.95
2022-10-22T07:16:09.563Z,26.00
2022-10-22T07:18:38.195Z,23.67
2022-10-22T07:21:06.432Z,24.70
2022-10-22T07:23:33.804Z,27.20
2022-10-22T07:26:02.787Z,24.88
2022-10-22T07:28:30.728Z,23.83
2022-10-22T07:30:57.928Z,22.52
2022-10-22T07:33:25.188Z,24.48
2022-10-22T07:35:57.093Z,24.38
2022-10-22T07:38:24.274Z,26.88
2022-10-22T07:40:51.426Z,22.85
2022-10-22T07:43:18.608Z,27.20
2022-10-22T07:45:45.924Z,24.00
2022-10-22T07:48:13.130Z,27.25
2022-10-22T07:50:40.353Z,24.80
2022-10-22T07:53:07.553Z,27.35
2022-10-22T07:55:35.268Z,27.95
2022-10-22T07:58:02.800Z,28.92
2022-10-22T08:00:29.970Z,22.85
2022-10-22T08:02:57.170Z,20.88
2022-10-22T08:05:24.387Z,22.80
2022-10-22T08:07:51.540Z,25.45
2022-10-22T08:10:18.707Z,21.63
2022-10-22T08:12:45.924Z,21.52
2022-10-22T08:15:13.081Z,23.67
2022-10-22T08:17:40.622Z,26.15
2022-10-22T08:20:08.481Z,24.75
2022-10-22T08:22:35.962Z,24.17
2022-10-22T08:25:03.167Z,26.00
2022-10-22T08:27:30.364Z,26.20
2022-10-22T08:29:57.509Z,22.63
2022-10-22T08:32:24.692Z,29.83
2022-10-22T08:34:51.856Z,31.00
2022-10-22T08:37:19.042Z,35.22
2022-10-22T08:39:46.284Z,27.70
2022-10-22T08:42:35.120Z,24.20
2022-10-22T08:45:25.682Z,26.50
2022-10-22T08:48:23.441Z,30.02
2022-10-22T08:50:52.773Z,26.40
2022-10-22T08:53:42.221Z,25.63
2022-10-22T08:56:09.428Z,26.42
2022-10-22T08:58:47.966Z,25.00
2022-10-22T09:01:16.521Z,22.58
2022-10-22T09:04:00.102Z,21.13
2022-10-22T09:06:57.373Z,20.65
2022-10-22T09:09:28.028Z,20.63
2022-10-22T09:11:57.893Z,25.10
2022-10-22T09:14:25.679Z,20.85
2022-10-22T09:17:16.604Z,21.00
2022-10-22T09:19:54.970Z,22.13
2022-10-22T09:22:40.279Z,23.58
2022-10-22T09:25:20.280Z,19.95
2022-10-22T09:27:48.247Z,20.67
2022-10-22T09:30:18.438Z,21.05
2022-10-22T09:32:45.881Z,18.95
2022-10-22T09:35:14.145Z,19.15
2022-10-22T09:37:50.539Z,18.13
2022-10-22T09:40:18.441Z,19.50
2022-10-22T09:42:46.792Z,17.75
2022-10-22T09:45:23.327Z,13.70
2022-10-22T09:48:01.446Z,18.08
2022-10-22T09:50:41.596Z,14.85
2022-10-22T09:53:20.808Z,12.80
2022-10-22T09:58:20.155Z,16.73
2022-10-22T10:00:51.793Z,15.00
2022-10-22T10:03:21.790Z,16.08
2022-10-22T10:05:51.856Z,13.73
2022-10-22T10:08:19.371Z,14.40
2022-10-22T10:11:01.284Z,17.27
2022-10-22T10:14:02.880Z,14.45
2022-10-22T10:16:39.737Z,13.38
2022-10-22T10:19:13.042Z,15.88
2022-10-22T10:21:59.452Z,15.63
2022-10-22T10:25:01.932Z,18.75
2022-10-22T10:27:38.720Z,12.52
2022-10-22T10:30:18.214Z,13.48
2022-10-22T10:33:32.373Z,18.63
2022-10-22T10:36:10.377Z,12.77
2022-10-22T10:38:55.987Z,18.33
2022-10-22T10:41:28.133Z,17.67
2022-10-22T10:44:23.016Z,14.85
2022-10-22T10:46:54.201Z,17.52
2022-10-22T10:49:25.830Z,13.23
2022-10-22T10:52:27.174Z,16.25
2022-10-22T10:55:33.798Z,11.13
2022-10-22T10:58:17.119Z,11.60
2022-10-22T11:00:53.839Z,12.10
2022-10-22T11:03:27.149Z,15.88
2022-10-22T11:06:16.197Z,13.88
2022-10-22T11:11:40.696Z,14.38
2022-10-22T11:14:18.475Z,12.90
2022-10-22T11:17:15.070Z,11.73
2022-10-22T11:20:04.598Z,14.90
2022-10-22T11:23:18.014Z,11.05
2022-10-22T11:25:47.802Z,9.85
2022-10-22T11:28:34.227Z,12.25
2022-10-22T11:31:14.631Z,11.85
2022-10-22T11:34:28.606Z,13.73
2022-10-22T11:36:53.295Z,8.52
2022-10-22T11:39:38.221Z,11.70
2022-10-22T11:42:12.736Z,12.32
2022-10-22T11:44:58.582Z,9.35
2022-10-22T11:47:28.706Z,11.25
2022-10-22T11:49:58.922Z,8.23
2022-10-22T11:52:40.978Z,12.20
2022-10-22T11:55:45.663Z,12.18
2022-10-22T11:58:43.904Z,11.07
2022-10-22T12:01:11.084Z,11.23
2022-10-22T12:03:43.991Z,10.18
2022-10-22T12:06:11.983Z,10.55
2022-10-22T12:08:46.115Z,9.82
2022-10-22T12:11:25.948Z,7.97
2022-10-22T12:13:58.871Z,12.02
2022-10-22T12:17:02.487Z,12.98
2022-10-22T12:19:39.921Z,10.52
2022-10-22T12:22:09.832Z,10.50
2022-10-22T12:24:52.430Z,5.57
2022-10-22T12:27:25.639Z,14.27
2022-10-22T12:29:58.079Z,8.13
2022-10-22T12:32:37.736Z,15.43
2022-10-22T12:35:14.786Z,7.65
2022-10-22T12:37:42.252Z,9.88
2022-10-22T12:40:18.477Z,7.13
2022-10-22T12:42:52.201Z,6.70
2022-10-22T12:45:19.836Z,10.80
2022-10-22T12:47:51.726Z,9.13
2022-10-22T12:50:24.556Z,15.45
2022-10-22T12:52:54.080Z,7.13
2022-10-22T12:55:25.528Z,9.38
2022-10-22T12:57:52.922Z,8.50
2022-10-22T13:00:28.809Z,9.43
2022-10-22T13:02:59.327Z,6.35
2022-10-22T13:05:31.159Z,7.10
2022-10-22T13:08:08.387Z,6.97
2022-10-22T13:10:38.202Z,8.00
2022-10-22T13:13:08.618Z,7.03
2022-10-22T13:15:39.009Z,9.25
2022-10-22T13:18:15.485Z,8.38
2022-10-22T13:21:00.873Z,8.57
2022-10-22T13:23:30.036Z,11.35
2022-10-22T13:28:29.713Z,10.38
2022-10-22T13:30:58.903Z,7.23
2022-10-22T13:36:00.820Z,7.13
2022-10-22T13:38:31.441Z,10.13
2022-10-22T13:40:59.379Z,10.93
2022-10-22T13:43:26.532Z,6.97
2022-10-22T13:45:55.947Z,7.95
2022-10-22T13:48:24.907Z,15.13
2022-10-22T13:50:52.494Z,8.98
2022-10-22T13:53:28.010Z,7.68
2022-10-22T13:55:55.186Z,9.35
2022-10-22T13:58:26.367Z,9.65
2022-10-22T14:00:58.260Z,7.70
2022-10-22T14:03:31.871Z,12.25
2022-10-22T14:05:59.072Z,8.10
2022-10-22T14:08:26.665Z,8.30
2022-10-22T14:10:54.275Z,6.05
2022-10-22T14:13:21.848Z,9.07
2022-10-22T14:15:50.531Z,4.82
2022-10-22T14:18:26.255Z,7.18
2022-10-22T14:20:55.591Z,5.80
2022-10-22T14:23:26.487Z,4.88
2022-10-22T14:25:53.971Z,7.88
2022-10-22T14:28:21.129Z,9.20
2022-10-22T14:30:48.359Z,5.25
2022-10-22T14:33:31.530Z,8.82
2022-10-22T14:36:00.435Z,13.05
2022-10-22T14:38:28.097Z,11.13
2022-10-22T14:40:55.765Z,8.13
2022-10-22T14:43:26.781Z,10.02
2022-10-22T14:45:54.101Z,9.25
2022-10-22T14:48:21.515Z,12.75
2022-10-22T14:50:49.106Z,11.68
2022-10-22T14:53:16.860Z,7.57
2022-10-22T14:55:44.872Z,9.23
2022-10-22T14:58:12.452Z,12.07
2022-10-22T15:00:42.326Z,9.75
2022-10-22T15:03:10.273Z,12.38
2022-10-22T15:05:43.919Z,8.40
2022-10-22T15:08:15.079Z,10.73
2022-10-22T15:10:42.495Z,7.18
2022-10-22T15:13:09.782Z,12.45
2022-10-22T15:15:40.125Z,10.57
2022-10-22T15:18:07.463Z,5.28
2022-10-22T15:20:34.697Z,5.90
2022-10-22T15:23:01.915Z,7.93
2022-10-22T15:25:29.091Z,10.60
2022-10-22T15:28:01.854Z,6.65
2022-10-22T15:30:31.893Z,6.65
2022-10-22T15:32:59.036Z,8.15
2022-10-22T15:35:28.707Z,8.00
2022-10-22T15:37:55.894Z,9.68
2022-10-22T15:40:23.081Z,6.95
2022-10-22T15:42:50.236Z,9.23
2022-10-22T15:45:17.592Z,9.65
2022-10-22T15:47:48.982Z,10.43
2022-10-22T15:50:16.825Z,12.30
2022-10-22T15:52:44.000Z,10.38
2022-10-22T15:57:43.829Z,10.43
2022-10-22T16:00:11.864Z,14.57
2022-10-22T16:02:39.057Z,12.93
2022-10-22T16:05:06.639Z,9.45
2022-10-22T16:07:33.777Z,10.98
2022-10-22T16:10:01.626Z,10.70
2022-10-22T16:12:28.790Z,13.38
2022-10-22T16:14:55.963Z,9.30
2022-10-22T16:17:23.469Z,9.23
2022-10-22T16:19:50.691Z,13.27
2022-10-22T16:22:17.875Z,10.40
2022-10-22T16:24:45.077Z,20.83
2022-10-22T16:27:12.248Z,16.08
2022-10-22T16:29:40.069Z,13.45
2022-10-22T16:32:08.066Z,9.18
2022-10-22T16:34:35.253Z,10.43
2022-10-22T16:37:02.611Z,10.32
2022-10-22T16:39:29.805Z,12.27
2022-10-22T16:41:57.033Z,8.75
2022-10-22T16:44:24.207Z,10.30
2022-10-22T16:46:51.355Z,19.58
2022-10-22T16:49:18.523Z,18.52
2022-10-22T16:51:45.786Z,19.23
2022-10-22T16:54:15.531Z,16.17
2022-10-22T16:56:42.720Z,11.68
2022-10-22T16:59:09.855Z,19.35
2022-10-22T17:01:40.862Z,19.30
2022-10-22T17:04:08.874Z,16.20
2022-10-22T17:06:36.204Z,15.38
2022-10-22T17:09:04.073Z,15.15
2022-10-22T17:11:36.369Z,17.63
2022-10-22T17:14:05.361Z,21.33
2022-10-22T17:16:32.556Z,17.70
2022-10-22T17:18:59.783Z,16.33
2022-10-22T17:21:27.001Z,16.50
2022-10-22T17:23:55.998Z,16.55
2022-10-22T17:26:26.419Z,20.70
2022-10-22T17:28:53.947Z,15.00
2022-10-22T17:31:30.139Z,11.55
2022-10-22T17:33:57.682Z,11.77
2022-10-22T17:36:25.851Z,8.82
2022-10-22T17:38:55.695Z,9.50
2022-10-22T17:41:25.330Z,12.02
2022-10-22T17:43:52.681Z,11.60
2022-10-22T17:46:25.251Z,13.63
2022-10-22T17:48:53.749Z,7.78
2022-10-22T17:51:21.919Z,14.30
2022-10-22T17:53:51.885Z,7.93
2022-10-22T17:56:22.921Z,15.32
2022-10-22T17:58:50.258Z,7.70
2022-10-22T18:01:25.889Z,14.40
2022-10-22T18:03:54.564Z,14.75
2022-10-22T18:06:22.088Z,9.25
2022-10-22T18:08:49.316Z,7.28
2022-10-22T18:11:22.166Z,7.55
2022-10-22T18:13:50.575Z,7.57
2022-10-22T18:16:17.908Z,7.80
2022-10-22T18:18:50.181Z,10.25
2022-10-22T18:21:17.505Z,6.70
2022-10-22T18:23:45.623Z,5.28
2022-10-22T18:26:13.421Z,15.00
2022-10-22T18:28:40.605Z,8.98
2022-10-22T18:31:09.660Z,9.55
2022-10-22T18:33:37.684Z,10.05
2022-10-22T18:36:07.472Z,7.18
2022-10-22T18:38:35.143Z,10.10
2022-10-22T18:41:02.301Z,7.75
2022-10-22T18:43:29.494Z,7.47
2022-10-22T18:45:56.656Z,5.65
2022-10-22T18:48:24.834Z,8.70
2022-10-22T18:51:03.652Z,8.13
2022-10-22T18:53:30.841Z,8.93
2022-10-22T18:55:58.261Z,7.32
2022-10-22T18:58:25.430Z,11.55
2022-10-22T19:00:52.641Z,7.38
2022-10-22T19:03:19.912Z,12.05
2022-10-22T19:05:49.424Z,8.65
2022-10-22T19:08:19.910Z,6.93
2022-10-22T19:10:47.857Z,11.68
2022-10-22T19:13:16.815Z,10.48
2022-10-22T19:15:44.007Z,7.95
2022-10-22T19:18:11.334Z,8.05
2022-10-22T19:20:38.537Z,6.88
2022-10-22T19:23:07.252Z,8.98
2022-10-22T19:25:35.023Z,7.78
2022-10-22T19:28:02.184Z,11.82
2022-10-22T19:30:29.421Z,12.65
2022-10-22T19:32:56.604Z,12.48
2022-10-22T19:35:23.853Z,11.13
2022-10-22T19:37:52.166Z,8.57
2022-10-22T19:40:19.443Z,11.50
2022-10-22T19:42:50.290Z,11.32
2022-10-22T19:45:18.203Z,12.00
2022-10-22T19:47:45.427Z,10.02
2022-10-22T19:50:12.603Z,7.95
2022-10-22T19:52:40.139Z,8.38
2022-10-22T19:55:09.981Z,9.15
2022-10-22T19:57:38.813Z,7.95
2022-10-22T20:00:07.549Z,8.82
2022-10-22T20:02:34.722Z,10.40
2022-10-22T20:05:01.878Z,10.38
2022-10-22T20:07:29.190Z,12.27
2022-10-22T20:09:56.352Z,11.43
2022-10-22T20:12:23.554Z,12.32
2022-10-22T20:14:51.557Z,11.38
2022-10-22T20:17:18.846Z,17.05
2022-10-22T20:19:45.988Z,11.20
2022-10-22T20:22:16.273Z,18.45
2022-10-22T20:24:45.994Z,13.23
2022-10-22T20:27:14.286Z,10.10
2022-10-22T20:29:41.490Z,11.98
2022-10-22T20:32:08.955Z,11.43
2022-10-22T20:34:36.945Z,11.68
2022-10-22T20:37:04.174Z,19.05
2022-10-22T20:39:31.594Z,11.02
2022-10-22T20:41:58.782Z,11.52
2022-10-22T20:44:25.963Z,11.10
2022-10-22T20:46:53.214Z,10.85
2022-10-22T20:49:23.478Z,11.32
2022-10-22T20:51:50.667Z,21.38
2022-10-22T20:54:19.176Z,8.25
2022-10-22T20:56:47.938Z,7.18
2022-10-22T20:59:15.764Z,13.07
2022-10-22T21:01:48.487Z,8.68
2022-10-22T21:04:16.973Z,10.43
2022-10-22T21:06:44.230Z,14.43
2022-10-22T21:09:13.517Z,14.50
2022-10-22T21:11:41.560Z,11.35
2022-10-22T21:14:10.330Z,15.45
2022-10-22T21:16:41.667Z,12.40
2022-10-22T21:19:08.878Z,11.32
2022-10-22T21:21:36.062Z,9.45
2022-10-22T21:24:03.789Z,10.93
2022-10-22T21:26:31.031Z,11.57
2022-10-22T21:28:58.226Z,10.80
2022-10-22T21:31:30.959Z,9.02
2022-10-22T21:33:58.562Z,13.23
2022-10-22T21:36:25.810Z,14.00
2022-10-22T21:38:53.275Z,9.77
2022-10-22T21:41:22.305Z,8.55
2022-10-22T21:43:49.753Z,12.43
2022-10-22T21:46:19.391Z,14.18
2022-10-22T21:48:46.992Z,7.80
2022-10-22T21:51:18.908Z,12.43
2022-10-22T21:53:46.673Z,13.48
2022-10-22T21:56:22.827Z,11.02
2022-10-22T21:58:50.407Z,16.75
2022-10-22T22:01:21.076Z,10.13
2022-10-22T22:03:49.878Z,8.55
2022-10-22T22:06:21.240Z,10.52
2022-10-22T22:08:49.682Z,13.32
2022-10-22T22:11:19.554Z,10.57
2022-10-22T22:13:48.689Z,14.27
2022-10-22T22:16:21.315Z,11.05
2022-10-22T22:18:51.160Z,12.68
2022-10-22T22:21:20.377Z,15.50
2022-10-22T22:26:17.123Z,14.80
2022-10-22T22:31:16.079Z,13.70
2022-10-22T22:33:43.797Z,12.85
2022-10-22T22:36:11.319Z,12.40
2022-10-22T22:38:38.544Z,17.55
2022-10-22T22:41:06.874Z,12.02
2022-10-22T22:43:34.523Z,10.80
2022-10-22T22:46:07.013Z,13.10
2022-10-22T22:48:34.839Z,17.25
2022-10-22T22:51:06.622Z,12.85
2022-10-22T22:53:34.804Z,16.75
2022-10-22T22:56:08.669Z,13.23
2022-10-22T22:58:36.767Z,16.85
2022-10-22T23:01:29.340Z,12.25
2022-10-22T23:03:58.763Z,15.88
2022-10-22T23:06:28.560Z,14.27
2022-10-22T23:08:56.833Z,16.58
2022-10-22T23:11:24.961Z,13.67
2022-10-22T23:13:54.549Z,14.85
2022-10-22T23:16:24.141Z,21.40
2022-10-22T23:18:53.247Z,11.30
2022-10-22T23:21:31.980Z,12.90
2022-10-22T23:24:01.528Z,14.05
2022-10-22T23:26:35.525Z,15.75
2022-10-22T23:29:14.207Z,16.85
2022-10-22T23:31:41.897Z,22.08
2022-10-22T23:34:10.015Z,14.55
2022-10-22T23:36:37.906Z,20.25
2022-10-22T23:39:09.834Z,18.63
2022-10-22T23:41:37.131Z,15.57
2022-10-22T23:44:05.323Z,14.85
2022-10-22T23:46:33.404Z,20.40
2022-10-22T23:49:01.215Z,16.63
2022-10-22T23:51:28.652Z,22.45
2022-10-22T23:54:04.729Z,11.70
2022-10-22T23:56:32.402Z,13.75
2022-10-22T23:58:59.611Z,16.50
